Time;durP1;ratioP1;P1;durP2;ratioP2;P2;SDS_P1;SDS_P2;PMS_P1;PMS_P2;Temp;Humidity;BMP_temperature;BMP_pressure;BME280_temperature;BME280_humidity;BME280_pressure;Samples;Min_cycle;Max_cycle;Signal;HPM_P1;HPM_P2
2023/12/06 00:01:05;;;;;;;41.03;18.10;;;2.80;99.90;;;;;;4983118;28;20579;-69
2023/12/06 00:03:31;;;;;;;38.97;16.92;;;2.80;99.90;;;;;;4983712;28;20034;-68
2023/12/06 00:05:57;;;;;;;38.67;17.10;;;2.80;99.90;;;;;;4986096;28;20429;-68
2023/12/06 00:08:23;;;;;;;38.35;17.20;;;2.80;99.90;;;;;;4985186;28;20065;-68
2023/12/06 00:10:49;;;;;;;42.45;17.40;;;2.80;99.90;;;;;;4980392;28;20084;-68
2023/12/06 00:13:14;;;;;;;38.50;17.25;;;2.70;99.90;;;;;;4982607;28;20034;-69
2023/12/06 00:15:40;;;;;;;37.15;18.20;;;2.70;99.90;;;;;;4981369;28;20038;-69
2023/12/06 00:18:06;;;;;;;34.30;17.38;;;2.70;99.90;;;;;;4984519;28;20820;-68
2023/12/06 00:20:32;;;;;;;35.92;17.00;;;2.80;99.90;;;;;;4981186;28;20141;-69
2023/12/06 00:22:58;;;;;;;37.42;17.45;;;2.70;99.90;;;;;;4989202;28;20030;-68
2023/12/06 00:25:23;;;;;;;36.92;16.35;;;2.80;99.90;;;;;;4982930;28;20109;-69
2023/12/06 00:27:49;;;;;;;38.78;17.58;;;2.90;99.90;;;;;;4985108;28;20034;-68
2023/12/06 00:30:15;;;;;;;38.30;17.90;;;2.90;99.90;;;;;;4985235;28;20049;-69
2023/12/06 00:32:41;;;;;;;37.05;17.70;;;2.80;99.90;;;;;;4991279;28;20038;-69
2023/12/06 00:35:09;;;;;;;37.85;17.17;;;2.80;99.90;;;;;;4981635;28;20042;-69
2023/12/06 00:37:34;;;;;;;41.47;18.55;;;2.80;99.90;;;;;;4988472;28;20077;-69
2023/12/06 00:40:00;;;;;;;36.00;16.83;;;2.90;99.90;;;;;;4978237;28;20141;-69
2023/12/06 00:42:26;;;;;;;35.47;16.02;;;2.80;99.90;;;;;;4990980;28;20078;-69
2023/12/06 00:44:52;;;;;;;35.05;15.45;;;2.90;99.90;;;;;;4980908;28;20031;-69
2023/12/06 00:47:18;;;;;;;43.80;17.23;;;3.00;99.90;;;;;;4990736;28;20037;-69
2023/12/06 00:49:44;;;;;;;40.10;17.13;;;3.00;99.90;;;;;;4979237;28;20495;-69
2023/12/06 00:52:09;;;;;;;41.40;19.25;;;3.00;99.90;;;;;;4989160;28;20186;-68
2023/12/06 00:54:35;;;;;;;42.33;17.38;;;3.10;99.90;;;;;;4982754;28;20153;-69
2023/12/06 00:57:01;;;;;;;35.85;16.65;;;3.10;99.90;;;;;;4987103;28;20168;-68
2023/12/06 00:59:27;;;;;;;34.33;16.67;;;3.10;99.90;;;;;;4982641;28;20061;-69
2023/12/06 01:01:53;;;;;;;34.80;16.92;;;3.10;99.90;;;;;;4974803;28;20545;-69
2023/12/06 01:04:18;;;;;;;36.05;16.98;;;3.10;99.90;;;;;;4978156;28;20038;-69
2023/12/06 01:06:44;;;;;;;35.75;17.05;;;3.20;99.90;;;;;;4980616;28;20026;-69
2023/12/06 01:09:10;;;;;;;42.47;18.50;;;3.10;99.90;;;;;;4983028;28;20034;-69
2023/12/06 01:11:36;;;;;;;40.53;17.58;;;3.10;99.90;;;;;;4977315;28;20557;-67
2023/12/06 01:14:02;;;;;;;39.53;17.65;;;3.10;99.90;;;;;;4985129;28;20050;-69
2023/12/06 01:16:28;;;;;;;37.92;16.58;;;3.20;99.90;;;;;;4981306;28;20038;-69
2023/12/06 01:18:54;;;;;;;38.08;17.42;;;3.10;99.90;;;;;;4982591;28;20435;-69
2023/12/06 01:21:20;;;;;;;36.22;16.48;;;3.10;99.90;;;;;;4979915;28;20065;-68
2023/12/06 01:23:46;;;;;;;34.88;16.38;;;3.10;99.90;;;;;;4983535;28;20035;-69
2023/12/06 01:26:12;;;;;;;41.17;17.92;;;3.20;99.90;;;;;;4979708;28;20034;-69
2023/12/06 01:28:37;;;;;;;37.10;18.05;;;3.20;99.90;;;;;;4988768;28;20034;-68
2023/12/06 01:31:03;;;;;;;43.70;17.55;;;3.20;99.90;;;;;;4981345;28;20040;-68
2023/12/06 01:33:29;;;;;;;39.08;18.67;;;3.10;99.90;;;;;;4991570;28;20030;-69
2023/12/06 01:35:55;;;;;;;38.80;18.13;;;3.10;99.90;;;;;;4979826;28;20035;-69
2023/12/06 01:38:21;;;;;;;30.50;16.38;;;3.10;99.90;;;;;;4991014;28;20479;-69
2023/12/06 01:40:47;;;;;;;44.10;17.65;;;3.10;99.90;;;;;;4980362;28;20055;-69
2023/12/06 01:43:13;;;;;;;34.85;17.00;;;3.20;99.90;;;;;;4992345;28;20035;-68
2023/12/06 01:45:38;;;;;;;41.92;18.33;;;3.20;99.90;;;;;;4981765;28;20038;-69
2023/12/06 01:48:05;;;;;;;35.22;15.93;;;3.10;99.90;;;;;;4990797;28;20035;-69
2023/12/06 01:50:33;;;;;;;37.83;17.17;;;3.10;99.90;;;;;;4983164;28;20499;-68
2023/12/06 01:53:00;;;;;;;43.75;18.10;;;3.20;99.90;;;;;;4989167;28;20049;-69
2023/12/06 01:55:26;;;;;;;37.65;17.10;;;3.20;99.90;;;;;;4985079;28;20624;-69
2023/12/06 01:57:52;;;;;;;35.67;17.42;;;3.20;99.90;;;;;;4988605;28;20042;-68
2023/12/06 02:00:18;;;;;;;39.45;16.80;;;3.10;99.90;;;;;;4985892;28;20034;-69
2023/12/06 02:02:44;;;;;;;38.92;16.63;;;3.10;99.90;;;;;;4989069;28;20041;-69
2023/12/06 02:05:12;;;;;;;41.78;17.90;;;3.10;99.90;;;;;;4984827;28;20126;-69
2023/12/06 02:07:40;;;;;;;34.08;16.25;;;3.00;99.90;;;;;;4989338;28;20037;-69
2023/12/06 02:10:06;;;;;;;39.33;17.17;;;3.00;99.90;;;;;;4984676;28;20034;-69
2023/12/06 02:12:32;;;;;;;33.70;16.60;;;3.10;99.90;;;;;;4985811;28;20041;-68
2023/12/06 02:14:59;;;;;;;44.10;17.67;;;3.00;99.90;;;;;;4985663;28;20035;-68
2023/12/06 02:17:26;;;;;;;36.13;16.90;;;3.00;99.90;;;;;;4989625;28;20034;-68
2023/12/06 02:19:53;;;;;;;39.80;16.35;;;3.10;99.90;;;;;;4988340;28;20034;-69
2023/12/06 02:22:21;;;;;;;36.90;16.42;;;3.10;99.90;;;;;;4989206;28;20032;-69
2023/12/06 02:24:53;;;;;;;43.00;18.42;;;3.00;99.90;;;;;;4985439;28;20034;-69
2023/12/06 02:27:21;;;;;;;38.80;16.35;;;3.10;99.90;;;;;;4984015;28;20121;-69
2023/12/06 02:29:46;;;;;;;38.55;17.90;;;3.10;99.90;;;;;;4990117;28;20042;-69
2023/12/06 02:32:12;;;;;;;40.08;16.25;;;3.00;99.90;;;;;;4986059;28;20022;-68
2023/12/06 02:34:40;;;;;;;41.88;18.65;;;3.10;99.90;;;;;;4987646;28;20117;-69
2023/12/06 02:37:08;;;;;;;39.60;16.38;;;3.00;99.90;;;;;;4980439;28;20435;-69
2023/12/06 02:39:43;;;;;;;40.00;16.67;;;3.10;99.90;;;;;;4988039;28;20038;-68
2023/12/06 02:42:09;;;;;;;43.42;18.23;;;3.00;99.90;;;;;;4981786;28;20070;-69
2023/12/06 02:44:35;;;;;;;41.50;18.17;;;3.00;99.90;;;;;;4989008;28;20061;-69
2023/12/06 02:47:02;;;;;;;40.83;17.67;;;2.90;99.90;;;;;;4977196;28;20064;-68
2023/12/06 02:49:27;;;;;;;38.78;16.52;;;2.90;99.90;;;;;;4990190;28;20042;-69
2023/12/06 02:51:54;;;;;;;39.35;16.23;;;2.90;99.90;;;;;;4978399;28;20035;-68
2023/12/06 02:54:20;;;;;;;37.63;17.48;;;2.90;99.90;;;;;;4991207;28;20041;-68
2023/12/06 02:56:45;;;;;;;38.28;16.00;;;3.00;99.90;;;;;;4979592;28;20039;-68
2023/12/06 02:59:11;;;;;;;43.58;17.88;;;3.10;99.90;;;;;;4990632;28;20046;-68
2023/12/06 03:01:37;;;;;;;39.25;16.75;;;3.10;99.90;;;;;;4980440;28;20062;-68
2023/12/06 03:04:05;;;;;;;34.67;16.77;;;3.00;99.90;;;;;;4988735;28;20034;-68
2023/12/06 03:06:31;;;;;;;35.80;17.30;;;2.90;99.90;;;;;;4981722;28;20038;-68
2023/12/06 03:08:56;;;;;;;38.95;18.50;;;3.00;99.90;;;;;;4987269;28;20149;-68
2023/12/06 03:11:22;;;;;;;36.42;16.85;;;2.90;99.90;;;;;;4983769;28;20035;-68
2023/12/06 03:13:48;;;;;;;39.28;16.90;;;3.00;99.90;;;;;;4984906;28;20046;-68
2023/12/06 03:16:14;;;;;;;38.72;17.20;;;3.00;99.90;;;;;;4983855;28;20041;-68
2023/12/06 03:18:40;;;;;;;37.65;17.75;;;2.90;99.90;;;;;;4988262;28;20696;-68
2023/12/06 03:21:07;;;;;;;34.75;15.85;;;3.00;99.90;;;;;;4983042;28;20150;-68
2023/12/06 03:23:32;;;;;;;36.45;16.23;;;3.00;99.90;;;;;;4987986;28;20104;-68
2023/12/06 03:25:58;;;;;;;37.25;16.15;;;3.00;99.90;;;;;;4983286;28;20035;-68
2023/12/06 03:28:24;;;;;;;39.30;17.55;;;3.10;99.90;;;;;;4987802;28;20469;-68
2023/12/06 03:30:50;;;;;;;42.88;17.88;;;3.10;99.90;;;;;;4983291;28;20057;-67
2023/12/06 03:33:16;;;;;;;36.25;16.83;;;3.20;99.90;;;;;;4988516;28;20036;-68
2023/12/06 03:35:41;;;;;;;40.28;17.42;;;3.10;99.90;;;;;;4982672;28;20402;-68
2023/12/06 03:38:07;;;;;;;43.10;17.23;;;3.00;99.90;;;;;;4986143;28;20034;-68
2023/12/06 03:40:33;;;;;;;39.90;17.45;;;3.10;99.90;;;;;;4986923;28;20096;-68
2023/12/06 03:42:59;;;;;;;42.35;17.70;;;3.10;99.90;;;;;;4977147;28;20035;-68
2023/12/06 03:45:25;;;;;;;42.72;17.33;;;3.10;99.90;;;;;;4988449;28;20030;-68
2023/12/06 03:47:50;;;;;;;37.78;17.00;;;3.00;99.90;;;;;;4983890;28;20391;-68
2023/12/06 03:50:16;;;;;;;36.38;16.65;;;3.00;99.90;;;;;;4988432;28;20116;-67
2023/12/06 03:52:42;;;;;;;40.47;16.75;;;3.10;99.90;;;;;;4977521;28;20524;-68
2023/12/06 03:55:08;;;;;;;37.97;15.80;;;3.10;99.90;;;;;;4988245;28;20055;-68
2023/12/06 03:57:34;;;;;;;39.35;17.80;;;3.10;99.90;;;;;;4976350;28;20038;-68
2023/12/06 04:00:00;;;;;;;43.20;17.52;;;3.10;99.90;;;;;;4981364;28;20039;-69
2023/12/06 04:02:25;;;;;;;38.70;16.83;;;3.20;99.90;;;;;;4980116;28;20031;-68
2023/12/06 04:04:52;;;;;;;39.80;18.20;;;3.30;99.90;;;;;;4985160;28;20061;-69
2023/12/06 04:07:18;;;;;;;36.55;16.05;;;3.30;99.90;;;;;;4982085;28;20031;-68
2023/12/06 04:09:43;;;;;;;40.05;16.10;;;3.30;99.90;;;;;;4986279;28;20037;-68
2023/12/06 04:12:09;;;;;;;40.85;16.42;;;3.30;99.90;;;;;;4994836;28;20503;-68
2023/12/06 04:14:35;;;;;;;41.30;16.92;;;3.30;99.90;;;;;;4994155;28;20031;-68
2023/12/06 04:17:01;;;;;;;36.42;16.25;;;3.20;99.90;;;;;;4981583;28;20192;-68
2023/12/06 04:19:27;;;;;;;39.33;16.58;;;3.20;99.90;;;;;;4986435;28;20057;-67
2023/12/06 04:21:53;;;;;;;37.83;16.98;;;3.20;99.90;;;;;;4980637;28;20038;-68
2023/12/06 04:24:19;;;;;;;35.40;15.85;;;3.30;99.90;;;;;;4993766;28;20030;-67
2023/12/06 04:26:44;;;;;;;36.58;16.65;;;3.20;99.90;;;;;;4981719;28;20033;-68
2023/12/06 04:29:10;;;;;;;40.60;17.10;;;3.20;99.90;;;;;;4985228;28;20495;-68
2023/12/06 04:31:37;;;;;;;33.00;15.38;;;3.30;99.90;;;;;;4983199;28;20542;-68
2023/12/06 04:34:02;;;;;;;40.00;17.48;;;3.30;99.90;;;;;;4982807;28;20030;-68
2023/12/06 04:36:28;;;;;;;36.42;16.63;;;3.20;99.90;;;;;;4985747;28;20054;-68
2023/12/06 04:38:54;;;;;;;36.60;16.67;;;3.20;99.90;;;;;;4981381;28;20505;-68
2023/12/06 04:41:20;;;;;;;37.95;16.85;;;3.30;99.90;;;;;;4987043;28;20176;-67
2023/12/06 04:43:46;;;;;;;39.15;16.17;;;3.10;99.90;;;;;;4982592;28;20882;-68
2023/12/06 04:46:12;;;;;;;35.13;16.40;;;3.20;99.90;;;;;;4987580;28;20054;-67
2023/12/06 04:48:38;;;;;;;36.40;15.98;;;3.10;99.90;;;;;;4988256;28;20034;-68
2023/12/06 04:51:04;;;;;;;38.25;17.83;;;3.00;99.90;;;;;;4986501;28;20034;-67
2023/12/06 04:53:29;;;;;;;39.15;16.20;;;3.00;99.90;;;;;;4982833;28;20111;-68
2023/12/06 04:55:55;;;;;;;35.08;15.40;;;2.90;99.90;;;;;;4985512;28;20058;-68
2023/12/06 04:58:21;;;;;;;36.78;16.83;;;2.90;99.90;;;;;;4986565;28;20034;-68
2023/12/06 05:00:47;;;;;;;36.28;16.10;;;2.90;99.90;;;;;;4983785;28;20045;-67
2023/12/06 05:03:13;;;;;;;40.15;16.85;;;2.90;99.90;;;;;;4984524;28;20038;-68
2023/12/06 05:05:39;;;;;;;38.83;15.95;;;2.90;99.90;;;;;;4992896;28;20491;-67
2023/12/06 05:08:05;;;;;;;37.70;16.90;;;2.80;99.90;;;;;;4982905;28;20026;-68
2023/12/06 05:10:30;;;;;;;36.13;15.70;;;2.90;99.90;;;;;;4983446;28;20045;-68
2023/12/06 05:12:57;;;;;;;37.55;16.40;;;2.90;99.90;;;;;;4986283;28;20038;-68
2023/12/06 05:15:22;;;;;;;36.22;17.13;;;2.90;99.90;;;;;;4989236;28;20033;-68
2023/12/06 05:17:48;;;;;;;34.88;16.73;;;3.00;99.90;;;;;;4983546;28;20038;-68
2023/12/06 05:20:14;;;;;;;41.72;16.80;;;3.00;99.90;;;;;;4988722;28;20030;-68
2023/12/06 05:22:40;;;;;;;37.08;17.20;;;3.10;99.90;;;;;;4984759;28;20069;-68
2023/12/06 05:25:06;;;;;;;39.33;16.52;;;3.10;99.90;;;;;;4986563;28;20030;-68
2023/12/06 05:27:33;;;;;;;36.65;16.50;;;3.10;99.90;;;;;;4986214;28;20030;-68
2023/12/06 05:29:58;;;;;;;39.08;16.75;;;3.10;99.90;;;;;;4984811;28;20564;-67
2023/12/06 05:32:24;;;;;;;43.63;17.48;;;3.20;99.90;;;;;;4988524;28;20045;-68
2023/12/06 05:34:50;;;;;;;36.80;16.83;;;3.20;99.90;;;;;;4984696;28;20034;-68
2023/12/06 05:37:16;;;;;;;35.05;15.95;;;3.10;99.90;;;;;;4989093;28;20033;-68
2023/12/06 05:39:42;;;;;;;34.55;15.65;;;3.20;99.90;;;;;;4984852;28;20123;-68
2023/12/06 05:42:08;;;;;;;38.53;15.40;;;3.20;99.90;;;;;;4988424;28;20112;-68
2023/12/06 05:44:33;;;;;;;43.53;16.15;;;3.30;99.90;;;;;;4984984;28;20156;-68
2023/12/06 05:46:59;;;;;;;38.05;16.23;;;3.30;99.90;;;;;;4988103;28;20777;-67
2023/12/06 05:49:25;;;;;;;38.88;16.70;;;3.30;99.90;;;;;;4985529;28;20034;-68
2023/12/06 05:51:51;;;;;;;40.65;17.30;;;3.20;99.90;;;;;;4980493;28;20066;-68
2023/12/06 05:54:17;;;;;;;39.35;16.98;;;3.30;99.90;;;;;;4983541;28;20061;-68
2023/12/06 05:56:43;;;;;;;34.63;14.80;;;3.20;99.90;;;;;;4989568;28;20443;-67
2023/12/06 05:59:09;;;;;;;37.53;16.40;;;3.20;99.90;;;;;;4983357;28;20041;-68
2023/12/06 06:01:36;;;;;;;34.30;15.80;;;3.30;99.90;;;;;;4991720;28;20038;-68
2023/12/06 06:04:02;;;;;;;36.83;16.33;;;3.40;99.90;;;;;;4980068;28;20034;-68
2023/12/06 06:06:34;;;;;;;39.65;17.33;;;3.30;99.90;;;;;;4990610;28;20502;-68
2023/12/06 06:09:00;;;;;;;37.10;16.05;;;3.30;99.90;;;;;;4981550;28;20031;-68
2023/12/06 06:11:26;;;;;;;36.13;17.25;;;3.30;99.90;;;;;;4992645;28;20038;-68
2023/12/06 06:13:52;;;;;;;37.63;16.27;;;3.30;99.90;;;;;;4984174;28;20518;-68
2023/12/06 06:16:18;;;;;;;36.20;16.10;;;3.40;99.90;;;;;;4993711;28;20041;-68
2023/12/06 06:18:44;;;;;;;36.67;16.33;;;3.40;99.90;;;;;;4985007;28;20066;-68
2023/12/06 06:21:10;;;;;;;36.60;17.00;;;3.40;99.90;;;;;;4993040;28;20030;-68
2023/12/06 06:23:36;;;;;;;39.95;17.13;;;3.50;99.90;;;;;;4983580;28;20490;-67
2023/12/06 06:26:02;;;;;;;38.75;16.98;;;3.60;99.90;;;;;;4983965;28;20046;-67
2023/12/06 06:28:27;;;;;;;40.13;16.50;;;3.50;99.90;;;;;;4986290;28;20058;-68
2023/12/06 06:30:53;;;;;;;39.33;17.58;;;3.50;99.90;;;;;;4978528;28;20049;-69
2023/12/06 06:33:19;;;;;;;39.55;16.88;;;3.40;99.90;;;;;;4989601;28;20042;-67
2023/12/06 06:35:45;;;;;;;35.90;16.83;;;3.30;99.90;;;;;;4983439;28;20034;-68
2023/12/06 06:38:11;;;;;;;37.75;16.25;;;3.30;99.90;;;;;;4985907;28;20847;-68
2023/12/06 06:40:37;;;;;;;31.67;15.38;;;3.30;99.90;;;;;;4984170;28;20049;-67
2023/12/06 06:43:05;;;;;;;40.88;17.23;;;3.30;99.90;;;;;;4987896;28;20035;-68
2023/12/06 06:45:32;;;;;;;33.42;15.57;;;3.30;99.90;;;;;;4982950;28;20490;-68
2023/12/06 06:47:58;;;;;;;36.33;16.33;;;3.40;99.90;;;;;;4985767;28;20174;-68
2023/12/06 06:50:23;;;;;;;37.78;17.13;;;3.40;99.90;;;;;;4981438;28;20569;-68
2023/12/06 06:52:49;;;;;;;36.05;16.65;;;3.50;99.90;;;;;;4986172;28;20030;-68
2023/12/06 06:55:15;;;;;;;33.47;15.82;;;3.50;99.90;;;;;;4983657;28;20092;-68
2023/12/06 06:57:41;;;;;;;39.75;16.40;;;3.50;99.90;;;;;;4988057;28;20042;-68
2023/12/06 07:00:07;;;;;;;39.00;17.08;;;3.50;99.90;;;;;;4980861;28;20049;-68
2023/12/06 07:02:33;;;;;;;36.97;15.98;;;3.40;99.90;;;;;;4989826;28;20026;-68
2023/12/06 07:05:00;;;;;;;36.35;16.80;;;3.40;99.90;;;;;;4983202;28;20030;-68
2023/12/06 07:07:26;;;;;;;39.63;17.42;;;3.40;99.90;;;;;;4990929;28;20045;-68
2023/12/06 07:09:52;;;;;;;37.22;17.00;;;3.40;99.90;;;;;;4979236;28;20031;-68
2023/12/06 07:12:20;;;;;;;36.78;16.33;;;3.40;99.90;;;;;;4991173;28;20060;-68
2023/12/06 07:14:46;;;;;;;39.47;16.52;;;3.40;99.90;;;;;;4980076;28;20654;-67
2023/12/06 07:17:12;;;;;;;38.05;16.88;;;3.50;99.90;;;;;;4990938;28;20089;-68
2023/12/06 07:19:37;;;;;;;39.33;17.27;;;3.60;99.90;;;;;;4979659;28;20038;-68
2023/12/06 07:22:04;;;;;;;34.70;17.20;;;3.60;99.90;;;;;;4988908;28;20054;-68
2023/12/06 07:24:32;;;;;;;40.25;17.42;;;3.60;99.90;;;;;;4989265;28;20042;-68
2023/12/06 07:26:58;;;;;;;43.17;17.55;;;3.60;99.90;;;;;;4987557;28;20038;-68
2023/12/06 07:29:24;;;;;;;43.83;17.27;;;3.60;99.90;;;;;;4999389;28;20487;-67
2023/12/06 07:31:50;;;;;;;41.58;18.10;;;3.60;99.90;;;;;;4987230;28;20031;-68
2023/12/06 07:34:17;;;;;;;41.17;18.05;;;3.50;99.90;;;;;;4984951;28;20092;-68
2023/12/06 07:36:45;;;;;;;40.63;17.52;;;3.50;99.90;;;;;;4988632;28;20027;-68
2023/12/06 07:39:11;;;;;;;40.10;16.52;;;3.50;99.90;;;;;;4984155;28;20045;-68
2023/12/06 07:41:37;;;;;;;40.55;17.25;;;3.50;99.90;;;;;;4981272;28;20061;-69
2023/12/06 07:44:02;;;;;;;37.90;17.50;;;3.50;99.90;;;;;;4983521;28;20049;-68
2023/12/06 07:46:28;;;;;;;36.22;15.65;;;3.50;99.90;;;;;;4978064;28;20089;-67
2023/12/06 07:48:54;;;;;;;37.90;16.67;;;3.60;99.90;;;;;;4981966;28;20034;-68
2023/12/06 07:51:20;;;;;;;41.70;17.60;;;3.60;99.90;;;;;;4959884;28;20100;-68
2023/12/06 07:53:46;;;;;;;37.65;17.40;;;3.60;99.90;;;;;;4983369;28;20045;-68
2023/12/06 07:56:12;;;;;;;40.90;16.33;;;3.70;99.90;;;;;;4986182;28;20150;-69
2023/12/06 07:58:37;;;;;;;39.90;17.48;;;3.60;99.90;;;;;;4987575;28;20034;-68
2023/12/06 08:01:03;;;;;;;43.05;17.17;;;3.70;99.90;;;;;;4980198;28;20514;-69
2023/12/06 08:03:31;;;;;;;39.30;15.48;;;3.70;99.90;;;;;;4986007;28;20576;-69
2023/12/06 08:06:01;;;;;;;39.38;17.85;;;3.80;99.90;;;;;;4983623;28;20066;-68
2023/12/06 08:08:28;;;;;;;37.95;17.50;;;3.70;99.90;;;;;;4989088;28;20481;-69
2023/12/06 08:10:55;;;;;;;36.88;17.58;;;3.70;99.90;;;;;;4981028;28;20033;-68
2023/12/06 08:13:24;;;;;;;34.72;16.20;;;3.70;99.90;;;;;;4982093;28;20038;-68
2023/12/06 08:15:50;;;;;;;39.22;17.50;;;3.70;99.90;;;;;;4977349;28;20218;-68
2023/12/06 08:18:16;;;;;;;37.47;17.58;;;3.80;99.90;;;;;;4992532;28;20034;-66
2023/12/06 08:20:42;;;;;;;36.90;15.57;;;3.80;99.90;;;;;;4978231;28;20042;-68
2023/12/06 08:23:08;;;;;;;40.65;17.88;;;3.80;99.90;;;;;;4989084;28;20503;-70
2023/12/06 08:25:34;;;;;;;40.65;17.60;;;3.80;99.90;;;;;;4978455;28;20030;-69
2023/12/06 08:28:00;;;;;;;42.00;17.80;;;3.80;99.90;;;;;;4986483;28;20595;-70
2023/12/06 08:30:26;;;;;;;46.00;19.05;;;3.80;99.90;;;;;;4982098;28;20474;-69
2023/12/06 08:32:53;;;;;;;41.20;17.75;;;3.80;99.90;;;;;;4985554;28;20034;-70
2023/12/06 08:35:19;;;;;;;41.15;18.17;;;3.70;99.90;;;;;;4985230;28;20049;-70
2023/12/06 08:37:45;;;;;;;40.67;18.30;;;3.70;99.90;;;;;;4982337;28;20038;-69
2023/12/06 08:40:12;;;;;;;41.38;17.88;;;3.70;99.90;;;;;;4982551;28;20042;-70
2023/12/06 08:42:39;;;;;;;35.10;15.82;;;3.70;99.90;;;;;;4983605;28;20041;-69
2023/12/06 08:45:08;;;;;;;42.92;17.95;;;3.70;99.90;;;;;;4983838;28;20030;-70
2023/12/06 08:47:34;;;;;;;39.42;17.55;;;3.60;99.90;;;;;;4984827;28;20065;-70
2023/12/06 08:50:00;;;;;;;41.03;18.20;;;3.60;99.90;;;;;;4988277;28;20093;-70
2023/12/06 08:52:26;;;;;;;38.25;17.67;;;3.70;99.90;;;;;;4986869;28;20038;-69
2023/12/06 08:54:52;;;;;;;41.92;18.40;;;3.70;99.90;;;;;;4982156;28;20034;-70
2023/12/06 08:57:18;;;;;;;40.42;18.10;;;3.70;99.90;;;;;;4987628;28;20853;-70
2023/12/06 08:59:43;;;;;;;43.22;18.52;;;3.70;99.90;;;;;;4984363;28;20038;-70
2023/12/06 09:02:09;;;;;;;38.88;18.02;;;3.70;99.90;;;;;;4987628;28;20026;-69
2023/12/06 09:04:35;;;;;;;37.33;17.45;;;3.70;99.90;;;;;;4988588;28;20414;-69
2023/12/06 09:07:01;;;;;;;40.22;18.02;;;3.70;99.90;;;;;;4982397;28;20058;-69
2023/12/06 09:09:27;;;;;;;36.15;17.40;;;3.70;99.90;;;;;;4987303;28;20034;-69
2023/12/06 09:11:53;;;;;;;42.90;19.33;;;3.80;99.90;;;;;;4975499;28;20830;-68
2023/12/06 09:14:19;;;;;;;37.78;18.20;;;3.90;99.90;;;;;;4986138;28;20068;-65
2023/12/06 09:16:45;;;;;;;41.42;17.95;;;3.90;99.90;;;;;;4976734;28;20055;-67
2023/12/06 09:19:11;;;;;;;39.58;16.33;;;3.90;99.90;;;;;;4988052;28;20027;-69
2023/12/06 09:21:43;;;;;;;38.55;16.52;;;3.90;99.90;;;;;;4977592;28;20070;-68
2023/12/06 09:24:10;;;;;;;44.17;17.95;;;3.90;99.90;;;;;;4987812;28;20041;-69
2023/12/06 09:26:37;;;;;;;40.65;17.48;;;3.90;99.90;;;;;;4977748;28;20034;-69
2023/12/06 09:29:05;;;;;;;44.88;19.55;;;4.00;99.90;;;;;;4985177;28;20398;-69
2023/12/06 09:31:35;;;;;;;42.17;17.75;;;4.00;99.90;;;;;;4979434;28;20041;-72
2023/12/06 09:34:02;;;;;;;39.65;17.25;;;4.10;99.90;;;;;;4985931;28;20042;-68
2023/12/06 09:36:29;;;;;;;49.13;18.40;;;4.20;99.90;;;;;;4980000;28;20092;-69
2023/12/06 09:38:58;;;;;;;43.85;19.17;;;4.20;99.90;;;;;;4984656;28;20045;-69
2023/12/06 09:41:32;;;;;;;40.25;18.38;;;4.20;99.90;;;;;;4977158;28;20038;-69
2023/12/06 09:43:59;;;;;;;39.90;16.58;;;4.10;99.90;;;;;;4981779;28;20026;-69
2023/12/06 09:46:26;;;;;;;35.80;16.17;;;4.10;99.90;;;;;;4984292;28;20037;-69
2023/12/06 09:48:54;;;;;;;39.53;17.25;;;4.20;99.90;;;;;;4980254;28;20107;-69
2023/12/06 09:51:22;;;;;;;38.05;16.95;;;4.20;99.90;;;;;;4979949;28;20030;-69
2023/12/06 09:53:48;;;;;;;37.17;16.45;;;4.20;99.90;;;;;;4992283;28;20034;-69
2023/12/06 09:56:14;;;;;;;38.92;17.90;;;4.20;99.90;;;;;;4985511;28;20049;-69
2023/12/06 09:58:41;;;;;;;34.50;15.73;;;4.20;99.90;;;;;;4984847;28;20786;-69
2023/12/06 10:01:08;;;;;;;35.92;15.27;;;4.30;99.90;;;;;;4985628;28;20042;-70
2023/12/06 10:03:33;;;;;;;35.28;16.75;;;4.30;99.90;;;;;;4989909;28;20054;-69
2023/12/06 10:06:03;;;;;;;40.40;17.55;;;4.40;99.90;;;;;;4983810;28;20541;-70
2023/12/06 10:08:33;;;;;;;38.90;16.25;;;4.40;99.90;;;;;;4990028;28;20544;-70
2023/12/06 10:11:07;;;;;;;42.85;17.65;;;4.40;99.90;;;;;;4985005;28;20121;-70
2023/12/06 10:13:35;;;;;;;41.92;17.20;;;4.40;99.90;;;;;;4988322;28;20425;-69
2023/12/06 10:16:01;;;;;;;44.90;16.38;;;4.40;99.90;;;;;;4986519;28;20062;-70
2023/12/06 10:18:27;;;;;;;35.72;16.50;;;4.40;99.90;;;;;;4989826;28;20117;-70
2023/12/06 10:20:54;;;;;;;44.33;17.25;;;4.40;99.90;;;;;;4988122;28;20037;-70
2023/12/06 10:23:20;;;;;;;33.83;16.98;;;4.30;99.90;;;;;;4982576;28;20029;-70
2023/12/06 10:25:47;;;;;;;36.50;16.50;;;4.30;99.90;;;;;;4985972;28;20788;-70
2023/12/06 10:28:23;;;;;;;34.08;16.65;;;4.30;99.90;;;;;;4982034;28;20159;-70
2023/12/06 10:31:03;;;;;;;42.42;17.45;;;4.30;99.90;;;;;;4984449;28;20042;-71
2023/12/06 10:33:32;;;;;;;41.60;17.85;;;4.30;99.90;;;;;;4984899;28;20506;-71
2023/12/06 10:36:05;;;;;;;37.50;17.27;;;4.30;99.90;;;;;;4988698;28;20034;-71
2023/12/06 10:38:31;;;;;;;37.67;16.98;;;4.30;99.90;;;;;;4986702;28;20537;-71
2023/12/06 10:41:00;;;;;;;37.00;16.77;;;4.40;99.90;;;;;;4988548;28;20371;-71
2023/12/06 10:43:30;;;;;;;42.60;18.35;;;4.40;99.90;;;;;;4988203;28;20026;-71
2023/12/06 10:45:57;;;;;;;37.47;16.40;;;4.40;99.90;;;;;;4988947;28;20562;-71
2023/12/06 10:48:24;;;;;;;38.20;17.17;;;4.40;99.90;;;;;;4988823;28;20030;-71
2023/12/06 10:50:51;;;;;;;34.05;14.68;;;4.40;99.90;;;;;;4985909;28;20152;-71
2023/12/06 10:53:18;;;;;;;37.03;16.35;;;4.40;99.90;;;;;;4984910;28;20046;-72
2023/12/06 10:55:46;;;;;;;40.83;16.35;;;4.50;99.90;;;;;;4986015;28;20059;-72
2023/12/06 10:58:15;;;;;;;38.40;16.33;;;4.50;99.90;;;;;;4981715;28;20981;-72
2023/12/06 11:00:42;;;;;;;35.80;16.52;;;4.40;99.90;;;;;;4988745;28;20038;-72
2023/12/06 11:03:09;;;;;;;35.97;16.35;;;4.40;99.90;;;;;;4981652;28;20133;-70
2023/12/06 11:05:44;;;;;;;40.03;16.17;;;4.40;99.90;;;;;;4989272;28;20026;-71
2023/12/06 11:08:31;;;;;;;35.55;15.13;;;4.50;99.90;;;;;;4982142;28;20034;-71
2023/12/06 11:11:30;;;;;;;36.35;15.40;;;4.50;99.90;;;;;;4984982;28;20043;-70
2023/12/06 11:14:22;;;;;;;30.90;15.65;;;4.50;99.90;;;;;;4990373;28;20658;-71
2023/12/06 11:17:06;;;;;;;34.30;16.23;;;4.50;99.90;;;;;;4986399;28;20053;-70
2023/12/06 11:19:34;;;;;;;35.75;16.33;;;4.50;99.90;;;;;;4988907;28;20054;-67
2023/12/06 11:22:02;;;;;;;35.53;15.48;;;4.50;99.90;;;;;;4989236;28;20027;-68
2023/12/06 11:24:29;;;;;;;37.85;16.00;;;4.50;99.90;;;;;;4989792;28;20103;-69
2023/12/06 11:26:56;;;;;;;35.58;16.58;;;4.50;99.90;;;;;;4982501;28;20039;-69
2023/12/06 11:29:24;;;;;;;32.88;15.93;;;4.60;99.90;;;;;;4988701;28;20036;-68
2023/12/06 11:31:57;;;;;;;33.20;14.15;;;4.60;99.90;;;;;;4983648;28;20038;-68
2023/12/06 11:34:34;;;;;;;35.92;16.42;;;4.50;99.90;;;;;;4982976;28;20092;-68
2023/12/06 11:37:16;;;;;;;32.67;14.18;;;4.60;99.90;;;;;;4979461;28;20290;-68
2023/12/06 11:40:01;;;;;;;30.17;15.35;;;4.50;99.90;;;;;;4983710;28;20049;-69
2023/12/06 11:42:28;;;;;;;33.20;13.95;;;4.50;99.90;;;;;;4979667;28;20031;-68
2023/12/06 11:44:54;;;;;;;30.15;13.75;;;4.50;99.90;;;;;;4980551;28;20073;-68
2023/12/06 11:47:26;;;;;;;37.08;14.80;;;4.50;99.90;;;;;;4982833;28;20113;-68
2023/12/06 11:49:53;;;;;;;39.97;16.25;;;4.50;99.90;;;;;;4980512;28;20107;-68
2023/12/06 11:52:20;;;;;;;35.92;14.63;;;4.60;99.90;;;;;;4987570;28;20129;-67
2023/12/06 11:54:46;;;;;;;30.73;13.98;;;4.60;99.90;;;;;;4981064;28;20046;-68
2023/12/06 11:57:14;;;;;;;31.23;14.23;;;4.60;99.90;;;;;;4981418;28;20061;-68
2023/12/06 11:59:40;;;;;;;29.08;14.15;;;4.60;99.90;;;;;;4980792;28;20044;-68
2023/12/06 12:02:07;;;;;;;37.05;15.43;;;4.70;99.90;;;;;;4980386;28;20031;-67
2023/12/06 12:04:34;;;;;;;36.42;16.08;;;4.70;99.90;;;;;;4981004;28;20038;-67
2023/12/06 12:07:00;;;;;;;38.05;16.60;;;4.70;99.90;;;;;;4981135;28;20530;-67
2023/12/06 12:09:29;;;;;;;38.83;15.45;;;4.80;99.90;;;;;;4986846;28;20379;-68
2023/12/06 12:11:55;;;;;;;34.95;15.32;;;4.80;99.90;;;;;;4979272;28;20038;-67
2023/12/06 12:14:21;;;;;;;32.78;15.40;;;4.70;99.90;;;;;;4985870;28;20034;-67
2023/12/06 12:16:47;;;;;;;33.67;16.17;;;4.80;99.90;;;;;;4988353;28;20049;-67
2023/12/06 12:19:13;;;;;;;36.05;14.77;;;4.80;99.90;;;;;;4982255;28;20141;-67
2023/12/06 12:21:39;;;;;;;33.78;14.70;;;4.70;99.90;;;;;;4985769;28;20038;-67
2023/12/06 12:24:06;;;;;;;34.92;15.95;;;4.70;99.90;;;;;;4978891;28;20062;-67
2023/12/06 12:26:32;;;;;;;36.45;15.38;;;4.70;99.90;;;;;;4983202;28;20065;-66
2023/12/06 12:28:59;;;;;;;35.88;14.70;;;4.70;99.90;;;;;;4992187;28;20034;-66
2023/12/06 12:31:30;;;;;;;37.05;16.48;;;4.70;99.90;;;;;;4983142;28;20047;-67
2023/12/06 12:33:57;;;;;;;36.13;15.63;;;4.70;99.90;;;;;;4976128;28;20125;-67